Latest Weather Observations for Larapuna (Eddystone Point)

IDT60801

Issued at 3:35 am EDT Friday 31 October 2014 (issued every 30 minutes, with the page automatically refreshed every 10 minutes)

About weather observations | Map of weather stations | Latest weather observations for TAS | Other Formats
Station Details ID: 092045 Name: LARAPUNA (EDDYSTONE POINT) Lat: -40.99 Lon: 148.35 Height: 19.7 m
Data from the previous 72 hours. | See also: Recent months at Larapuna (Eddystone Point)
Date/Time
EDT
Temp
°C
App
Temp
°C
Dew
Point
Rel
Hum
%
Delta-T
°C
Wind Press
QNH
hPa
Press
MSL
hPa
Rain
since 9 am
mm
Dir
 
Spd
km/h
Gust
km/h
Spd
kts
Gust
kts
31/03:30am 11.5 6.3 10.1 91 0.7 WNW 28 37 15 20 1008.9 1008.9 0.0
31/03:00am 11.7 7.2 10.1 90 0.8 NW 24 35 13 19 1009.0 1009.0 0.0
31/02:30am 11.7 7.9 9.8 88 1.0 NW 20 28 11 15 1009.4 1009.4 0.0
31/02:00am 11.9 6.6 10.0 88 1.0 WNW 28 39 15 21 1009.4 1009.4 0.0
31/01:30am 12.2 7.7 10.1 87 1.1 WNW 24 30 13 16 1009.6 1009.6 0.0
31/01:00am 12.4 8.3 10.1 86 1.2 WNW 22 30 12 16 1009.6 1009.6 0.0
31/12:30am 12.5 9.7 9.9 84 1.3 WNW 15 20 8 11 1009.8 1009.8 0.0
31/12:00am 12.8 8.7 10.0 83 1.4 W 22 35 12 19 1010.0 1010.0 0.0
 
Date/Time
EDT
Temp
°C
App
Temp
°C
Dew
Point
Rel
Hum
%
Delta-T
°C
Wind Press
QNH
hPa
Press
MSL
hPa
Rain
since 9 am
mm
Dir
 
Spd
km/h
Gust
km/h
Spd
kts
Gust
kts
30/11:30pm 12.7 9.2 10.2 85 1.3 W 19 26 10 14 1010.2 1010.2 0.0
30/11:00pm 12.8 9.1 10.2 84 1.3 W 20 30 11 16 1010.4 1010.4 0.0
30/10:30pm 12.9 9.4 10.1 83 1.4 WNW 19 26 10 14 1010.2 1010.2 0.0
30/10:00pm 12.9 9.2 10.3 84 1.3 WNW 20 30 11 16 1010.1 1010.1 0.0
30/09:30pm 13.0 7.4 10.2 83 1.4 WNW 30 39 16 21 1009.9 1009.9 0.0
30/09:00pm 13.3 7.3 10.1 81 1.7 WNW 32 39 17 21 1009.7 1009.7 0.0
30/08:30pm 13.5 7.2 9.7 78 1.9 WNW 33 46 18 25 1009.5 1009.5 0.0
30/08:00pm 13.9 6.8 9.7 76 2.2 WNW 37 50 20 27 1009.2 1009.2 0.0
30/07:30pm 14.3 7.6 9.7 74 2.4 WNW 35 48 19 26 1008.8 1008.8 0.0
30/07:00pm 14.7 6.5 9.7 72 2.6 WNW 43 59 23 32 1008.8 1008.8 0.0
30/06:36pm 15.2 7.4 9.8 70 2.8 WNW 41 59 22 32 1008.5 1008.5 0.0
30/06:30pm 15.2 7.0 9.8 70 2.8 NW 43 57 23 31 1008.5 1008.5 0.0
30/06:23pm 15.3 8.6 9.7 69 2.9 WNW 35 54 19 29 1008.6 1008.6 0.0
30/06:00pm 15.8 8.7 9.5 66 3.3 WNW 37 52 20 28 1008.7 1008.7 0.0
30/05:40pm 16.5 10.8 9.7 64 3.6 WNW 30 48 16 26 1009.0 1009.0 0.0
30/05:30pm 16.5 9.8 9.7 64 3.6 WNW 35 48 19 26 1008.9 1008.9 0.0
30/05:18pm 16.8 10.5 9.7 63 3.7 WNW 33 52 18 28 1008.9 1008.9 0.0
30/05:00pm 17.0 9.9 9.7 62 3.8 WNW 37 50 20 27 1008.5 1008.5 0.0
30/04:30pm 17.0 9.6 9.9 63 3.7 WNW 39 50 21 27 1008.5 1008.5 0.0
30/04:00pm 16.9 9.5 9.8 63 3.7 WNW 39 54 21 29 1008.4 1008.4 0.0
30/03:32pm 16.6 9.3 10.2 66 3.4 NW 39 57 21 31 1008.3 1008.3 0.0
30/03:30pm 16.8 9.5 10.2 65 3.5 NW 39 56 21 30 1008.2 1008.2 0.0
30/03:00pm 17.5 9.9 10.4 63 3.8 NW 41 54 22 29 1008.5 1008.5 0.0
30/02:50pm 17.4 10.9 10.3 63 3.8 WNW 35 54 19 29 1008.5 1008.5 0.0
30/02:30pm 17.2 9.6 10.6 65 3.5 NW 41 52 22 28 1008.5 1008.5 0.0
30/02:01pm 17.2 9.9 10.1 63 3.8 NW 39 57 21 31 1008.6 1008.6 0.0
30/02:00pm 17.2 9.9 10.1 63 3.8 NW 39 54 21 29 1008.6 1008.6 0.0
30/01:44pm 17.7 11.2 10.3 62 3.9 NW 35 54 19 29 1008.8 1008.8 0.0
30/01:30pm 17.5 10.2 10.1 62 3.9 WNW 39 54 21 29 1009.0 1009.0 0.0
30/01:00pm 17.1 10.1 10.0 63 3.8 NW 37 56 20 30 1008.8 1008.8 0.0
30/12:30pm 17.4 10.4 9.8 61 4.0 NW 37 57 20 31 1008.8 1008.8 0.0
30/12:01pm 16.2 8.9 8.9 62 3.7 WNW 37 57 20 31 1009.2 1009.2 0.0
30/12:00pm 16.3 9.1 9.3 63 3.6 WNW 37 54 20 29 1009.2 1009.2 0.0
30/11:39am 15.9 9.0 8.9 63 3.6 WNW 35 56 19 30 1009.3 1009.3 0.0
30/11:30am 15.9 9.4 8.9 63 3.6 WNW 33 48 18 26 1009.3 1009.3 0.0
30/11:16am 17.1 10.9 9.5 61 4.0 WNW 32 54 17 29 1009.3 1009.3 0.0
30/11:00am 16.7 9.9 9.1 61 3.9 WNW 35 50 19 27 1009.5 1009.5 0.0
30/10:53am 16.6 10.3 9.1 61 3.9 WNW 32 50 17 27 1009.8 1009.8 0.0
30/10:30am 16.6 10.3 9.1 61 3.9 WNW 32 46 17 25 1009.8 1009.8 0.0
30/10:23am 16.2 10.6 8.7 61 3.8 WNW 28 46 15 25 1009.8 1009.8 0.0
30/10:00am 15.8 9.4 9.2 65 3.4 WNW 33 48 18 26 1009.8 1009.8 0.0
30/09:47am 15.8 9.9 9.2 65 3.4 WNW 30 48 16 26 1009.8 1009.8 0.0
30/09:30am 15.1 10.3 8.8 66 3.2 W 24 41 13 22 1010.0 1010.0 0.0
30/09:00am 14.4 10.5 9.4 72 2.6 W 20 35 11 19 1010.2 1010.2 0.0
30/08:30am 13.6 9.8 9.1 74 2.3 W 19 32 10 17 1010.1 1010.1 0.0
30/08:00am 13.4 8.3 9.3 76 2.1 WNW 26 41 14 22 1009.6 1009.6 0.0
30/07:30am 12.7 6.4 9.0 78 1.9 WNW 32 50 17 27 1009.5 1009.5 0.0
30/07:18am 12.4 5.9 8.9 79 1.8 WNW 33 52 18 28 1009.1 1009.1 0.0
30/07:00am 11.8 5.2 8.6 81 1.6 WNW 33 46 18 25 1008.8 1008.8 0.0
30/06:30am 11.7 3.9 8.4 80 1.6 WNW 39 54 21 29 1008.5 1008.5 0.0
30/06:00am 11.8 3.3 8.5 80 1.6 NW 43 57 23 31 1008.0 1008.0 0.0
30/05:30am 12.0 3.9 8.7 80 1.6 WNW 41 54 22 29 1007.9 1007.9 0.0
30/05:17am 12.1 4.4 8.8 80 1.6 WNW 39 57 21 31 1007.8 1007.8 0.0
30/05:00am 12.2 4.5 8.7 79 1.7 WNW 39 54 21 29 1008.0 1008.0 0.0
30/04:41am 12.1 6.1 8.8 80 1.6 WNW 30 48 16 26 1008.1 1008.1 0.0
30/04:30am 12.0 6.0 8.7 80 1.6 WNW 30 46 16 25 1008.2 1008.2 0.0
30/04:07am 12.0 6.4 8.8 81 1.6 WNW 28 46 15 25 1008.3 1008.3 0.0
30/04:00am 12.0 6.8 9.0 82 1.5 WNW 26 41 14 22 1008.4 1008.4 0.0
30/03:30am 12.2 7.6 9.6 84 1.3 NW 24 39 13 21 1008.5 1008.5 0.0
30/03:00am 12.1 8.0 10.0 87 1.1 WNW 22 32 12 17 1008.6 1008.6 0.0
30/02:30am 12.1 7.2 9.8 86 1.2 WNW 26 37 14 20 1008.6 1008.6 0.0
30/02:00am 12.2 7.0 10.1 87 1.1 WNW 28 44 15 24 1008.6 1008.6 0.0
30/01:31am 12.2 6.2 10.1 87 1.1 WNW 32 50 17 27 1008.6 1008.6 0.0
30/01:30am 12.3 6.1 10.2 87 1.1 WNW 33 50 18 27 1008.6 1008.6 0.0
30/01:00am 12.3 7.4 9.9 85 1.2 WNW 26 41 14 22 1009.3 1009.3 0.0
30/12:30am 12.7 8.2 10.1 84 1.3 WNW 24 41 13 22 1009.5 1009.5 0.0
30/12:00am 13.0 8.5 10.0 82 1.5 WNW 24 35 13 19 1009.7 1009.7 0.0
 
Date/Time
EDT
Temp
°C
App
Temp
°C
Dew
Point
Rel
Hum
%
Delta-T
°C
Wind Press
QNH
hPa
Press
MSL
hPa
Rain
since 9 am
mm
Dir
 
Spd
km/h
Gust
km/h
Spd
kts
Gust
kts
29/11:30pm 12.9 9.6 9.7 81 1.6 WNW 17 28 9 15 1009.9 1009.9 0.0
29/11:00pm 13.1 9.4 10.1 82 1.6 WNW 20 33 11 18 1010.0 1010.0 0.0
29/10:30pm 12.9 8.0 9.9 82 1.5 W 26 41 14 22 1010.0 1010.0 0.0
29/10:00pm 12.8 7.2 10.0 83 1.4 WNW 30 48 16 26 1010.0 1010.0 0.0
29/09:53pm 12.9 7.3 10.1 83 1.4 WNW 30 48 16 26 1010.0 1010.0 0.0
29/09:30pm 12.8 8.2 9.8 82 1.5 WNW 24 39 13 21 1010.2 1010.2 0.0
29/09:00pm 13.0 7.7 9.8 81 1.6 WNW 28 44 15 24 1010.2 1010.2 0.0
29/08:30pm 12.8 7.0 9.6 81 1.6 W 30 44 16 24 1009.9 1009.9 0.0
29/08:13pm 13.0 6.9 9.6 80 1.7 WNW 32 50 17 27 1009.8 1009.8 0.0
29/08:00pm 13.0 5.8 9.3 78 1.9 WNW 37 50 20 27 1009.7 1009.7 0.0
29/07:30pm 13.4 5.4 9.1 75 2.2 WNW 41 61 22 33 1009.4 1009.4 0.0
29/07:00pm 13.9 5.4 9.1 73 2.4 WNW 44 67 24 36 1008.7 1008.7 0.0
29/06:30pm 14.6 6.1 9.2 70 2.8 WNW 44 65 24 35 1008.6 1008.6 0.0
29/06:00pm 14.7 5.0 8.9 68 3.0 WNW 50 72 27 39 1008.5 1008.5 0.0
29/05:30pm 15.2 6.7 9.1 67 3.1 WNW 44 63 24 34 1008.5 1008.5 0.0
29/05:00pm 15.6 7.0 8.8 64 3.5 WNW 44 65 24 35 1008.9 1008.9 0.0
29/04:30pm 16.2 8.6 8.9 62 3.7 WNW 39 57 21 31 1009.0 1009.0 0.0
29/04:00pm 16.0 6.9 8.5 61 3.8 WNW 46 69 25 37 1009.2 1009.2 0.0
29/03:30pm 16.3 6.0 8.3 59 4.1 WNW 52 80 28 43 1009.4 1009.4 0.0
29/03:03pm 16.6 7.3 9.1 61 3.9 WNW 48 67 26 36 1009.7 1009.7 0.0
29/03:00pm 15.5 5.2 8.0 61 3.8 WNW 52 67 28 36 1009.7 1009.7 0.0
29/02:30pm 15.7 6.0 7.5 58 4.1 WNW 48 67 26 36 1010.1 1010.1 0.0
29/02:00pm 16.3 8.4 8.0 58 4.2 WNW 39 57 21 31 1010.7 1010.7 0.0
29/01:30pm 15.8 6.0 7.0 56 4.3 WNW 48 67 26 36 1011.0 1011.0 0.0
29/01:00pm 16.4 7.7 7.6 56 4.4 WNW 43 65 23 35 1011.3 1011.3 0.0
29/12:30pm 16.3 8.2 7.0 54 4.6 WNW 39 57 21 31 1011.4 1011.4 0.0
29/12:07pm 16.7 9.7 6.8 52 4.9 NW 33 52 18 28 1011.5 1011.5 0.0
29/12:00pm 16.8 11.0 6.3 50 5.1 W 26 41 14 22 1011.7 1011.7 0.0
29/11:30am 16.5 10.3 6.1 50 5.1 WNW 28 46 15 25 1011.8 1011.8 0.0
29/11:29am 16.4 10.2 6.0 50 5.0 WNW 28 46 15 25 1011.8 1011.8 0.0
29/11:00am 16.2 10.1 6.6 53 4.7 WNW 28 43 15 23 1012.0 1012.0 0.0
29/10:30am 15.3 9.8 6.1 54 4.4 WNW 24 35 13 19 1012.4 1012.4 0.0
29/10:00am 14.5 8.2 5.6 55 4.2 WNW 28 41 15 22 1012.6 1012.6 0.0
29/09:30am 13.5 8.2 4.9 56 4.0 WNW 22 32 12 17 1012.3 1012.3 0.0
29/09:00am 12.4 5.7 3.9 56 3.8 W 28 39 15 21 1012.5 1012.5 0.0
29/08:30am 11.4 3.9 3.4 58 3.5 W 32 44 17 24 1012.3 1012.3 0.0
29/08:00am 10.2 1.6 2.6 59 3.3 W 37 54 20 29 1011.8 1011.8 0.0
29/07:30am 9.4 1.1 2.0 60 3.1 W 35 48 19 26 1012.1 1012.1 0.0
29/07:00am 8.4 1.0 2.0 64 2.7 W 30 41 16 22 1012.0 1012.0 0.0
29/06:30am 7.2 1.0 2.1 70 2.1 WNW 24 35 13 19 1011.7 1011.7 0.0
29/06:00am 6.9 1.0 1.8 70 2.1 W 22 32 12 17 1011.4 1011.4 0.0
29/05:30am 7.2 0.6 2.1 70 2.1 W 26 37 14 20 1010.9 1010.9 0.0
29/05:00am 6.9 1.1 2.2 72 1.9 WNW 22 30 12 16 1010.6 1010.6 0.0
29/04:30am 7.6 1.0 2.3 69 2.2 WNW 26 32 14 17 1010.0 1010.0 0.0
29/04:00am 7.7 1.5 2.0 67 2.4 W 24 35 13 19 1010.1 1010.1 0.0
29/03:30am 7.8 1.6 2.1 67 2.4 W 24 35 13 19 1009.8 1009.8 0.0
29/03:00am 8.1 2.7 2.4 67 2.4 WNW 20 28 11 15 1009.8 1009.8 0.0
29/02:30am 8.2 1.2 2.2 66 2.5 WNW 28 35 15 19 1009.1 1009.1 0.0
29/02:00am 8.4 0.6 2.0 64 2.7 WNW 32 43 17 23 1008.7 1008.7 0.0
29/01:30am 8.1 2.6 1.7 64 2.6 WNW 20 28 11 15 1009.1 1009.1 0.0
29/01:00am 8.6 2.4 2.2 64 2.7 WNW 24 35 13 19 1008.7 1008.7 0.0
29/12:30am 9.1 3.2 1.5 59 3.1 NW 22 39 12 21 1008.7 1008.7 0.0
29/12:00am 8.9 3.9 1.1 58 3.2 WNW 17 26 9 14 1008.4 1008.4 0.0
 
Date/Time
EDT
Temp
°C
App
Temp
°C
Dew
Point
Rel
Hum
%
Delta-T
°C
Wind Press
QNH
hPa
Press
MSL
hPa
Rain
since 9 am
mm
Dir
 
Spd
km/h
Gust
km/h
Spd
kts
Gust
kts
28/11:30pm 8.9 1.4 0.9 57 3.2 W 30 50 16 27 1007.4 1007.4 0.0
28/11:28pm 9.0 1.5 1.0 57 3.3 W 30 50 16 27 1007.3 1007.3 0.0
28/11:00pm 8.7 3.0 0.7 57 3.2 W 20 30 11 16 1007.5 1007.5 0.0
28/10:30pm 9.3 3.8 0.7 55 3.5 WNW 19 28 10 15 1007.3 1007.3 0.0
28/10:00pm 9.2 4.1 0.6 55 3.5 W 17 26 9 14 1006.7 1006.7 0.0
28/09:30pm 10.0 3.5 0.3 51 3.9 W 24 39 13 21 1006.4 1006.4 0.0
28/09:00pm 10.3 3.8 0.1 49 4.1 W 24 33 13 18 1005.8 1005.8 0.0
28/08:30pm 10.6 2.2 -0.8 45 4.5 W 33 52 18 28 1004.9 1004.9 0.0
28/08:00pm 10.9 0.7 -0.2 46 4.5 W 43 69 23 37 1003.5 1003.5 0.0
28/07:30pm 11.5 1.2 0.3 46 4.6 W 44 70 24 38 1002.7 1002.7 0.0
28/07:00pm 12.4 1.3 0.2 43 5.1 W 48 74 26 40 1002.0 1002.0 0.0
28/06:30pm 13.2 1.5 1.2 44 5.1 W 52 74 28 40 1001.6 1001.6 0.0
28/06:00pm 13.8 2.5 1.1 42 5.5 W 50 80 27 43 1000.7 1000.7 0.0
28/05:30pm 13.4 4.4 4.6 55 4.0 WNW 41 63 22 34 1000.1 1000.1 0.0
28/05:00pm 13.3 3.0 4.5 55 4.1 WNW 48 78 26 42 999.7 999.7 0.0
28/04:43pm 14.4 2.6 2.6 45 5.2 WNW 54 72 29 39 999.5 999.5 0.0
28/04:41pm 14.3 1.7 1.6 42 5.5 WNW 57 72 31 39 999.5 999.5 0.0
28/04:35pm 14.1 5.1 2.4 45 5.2 W 39 61 21 33 999.6 999.6 0.0
28/04:34pm 14.2 6.0 2.8 46 5.1 W 35 50 19 27 999.6 999.6 0.0
28/04:30pm 14.5 2.1 2.7 45 5.3 W 57 80 31 43 999.5 999.5 0.0
28/04:00pm 14.1 4.1 4.1 51 4.6 W 46 69 25 37 999.3 999.3 0.0
28/03:30pm 15.3 5.9 4.7 49 5.0 WNW 43 63 23 34 998.8 998.8 0.0
28/03:00pm 14.0 3.8 3.2 48 4.9 W 46 69 25 37 998.8 998.8 0.0
28/02:30pm 15.6 3.8 0.6 36 6.5 W 52 87 28 47 998.5 998.5 0.0
28/02:00pm 14.9 4.7 3.4 46 5.3 W 46 74 25 40 998.5 998.5 0.0
28/01:30pm 15.4 4.6 2.2 41 5.9 WNW 48 72 26 39 997.7 997.7 0.0
28/01:00pm 15.5 6.1 5.4 51 4.8 WNW 44 65 24 35 997.4 997.4 0.0
28/12:30pm 14.4 3.5 3.5 48 4.9 WNW 50 74 27 40 997.5 997.5 0.0
28/12:00pm 15.1 5.6 4.8 50 4.9 WNW 44 69 24 37 997.1 997.1 0.0
28/11:30am 14.8 4.4 4.2 49 4.9 W 48 74 26 40 996.7 996.7 0.0
28/11:00am 14.5 4.0 5.6 55 4.3 W 50 76 27 41 997.0 997.0 0.0
28/10:30am 14.1 3.6 5.5 56 4.1 WNW 50 91 27 49 996.5 996.5 0.0
28/10:00am 13.7 3.1 5.1 56 4.0 WNW 50 80 27 43 996.1 996.1 0.0
28/09:30am 12.3 3.0 7.4 72 2.4 WNW 46 74 25 40 996.1 996.1 0.0
28/09:00am 11.9 3.0 7.6 75 2.1 W 44 69 24 37 996.3 996.3 8.0
28/08:30am 12.7 3.5 8.2 74 2.2 WNW 46 72 25 39 995.9 995.9 8.0
28/08:00am 11.9 2.0 8.2 78 1.8 WNW 50 72 27 39 995.7 995.7 8.0
28/07:30am 11.8 3.1 9.9 88 1.0 WNW 46 74 25 40 995.8 995.8 8.0
28/07:00am 12.0 3.7 10.2 89 0.9 WNW 44 63 24 34 995.2 995.2 7.4
28/06:30am 11.9 1.1 9.8 87 1.1 NW 57 87 31 47 995.4 995.4 7.0
28/06:00am 12.8 1.5 9.3 79 1.8 NW 59 80 32 43 995.2 995.2 6.6
28/05:30am 12.4 0.7 9.4 82 1.5 NW 61 87 33 47 995.2 995.2 6.6
28/05:00am 12.4 1.4 9.1 80 1.7 NW 57 91 31 49 995.3 995.3 6.6
28/04:30am 12.3 1.6 8.2 76 2.0 NW 54 83 29 45 996.2 996.2 6.6
28/04:00am 12.2 2.6 7.9 75 2.1 NW 48 72 26 39 997.0 997.0 6.6

Other Formats:

Comma delimited format used in spreadsheet applications
http://www.bom.gov.au/fwo/IDT60801/IDT60801.94983.axf

JavaScript Object Notation format (JSON) in row-major order
http://www.bom.gov.au/fwo/IDT60801/IDT60801.94983.json